Startpagina
METAR-TAF:

METAR-TAF

Vliegvelden :

Aéroport de Paris-Beauvais-Tillé

Beauvais, Frankrijk

breedte: 49-28N, lengte: 002-07E, hoogte: 109 m

Actueel weer

Dit bericht is 32 minuten geleden gemaakt, om 05:30 UTC
Weinig wind
Temperatuur 6°C
Vochtigheid 93%
Druk 1029 hPa
Zicht: 5000 m
nevel

METAR: LFOB 200530Z AUTO 00000KT 5000 BR NSC 06/05 Q1029 NOSIG

Tijdstip: 08:02 (06:02 UTC)

Verwachting

Dit bericht is 1 uur en het 2 minuten geleden gemaakt, om 05:00 UTC
Verwachting geldig van 20 om 06 UTC tot 21 om 06 UTC
Wind 7 kt uit het noordnoordoosten
Zicht: 3000 m
nevel
Kans 30%
van 20 om 06 UTC tot 20 om 08 UTC
Zicht: 0700 m
Gebroken wolken op 200 ft
mistbanken
Wijzigt naar
van 20 om 08 UTC tot 20 om 11 UTC
Zicht 10 km of meer
Tijdelijke
van 21 om 04 UTC tot 21 om 06 UTC
Zicht: 0700 m
mistbanken

TAF: LFOB 200500Z 2006/2106 03007KT 3000 BR NSC PROB30 2006/2008 0700 BCFG BKN002 BECMG 2008/2011 9999 NSW TEMPO 2104/2106 0700 BCFG

Waarnemingen en weersverwachtingen van meer dan 4000 vliegvelden (METAR en TAF).

De beschikbare stations zijn de gele en rode punten op de kaart.

Ga met uw muis naar het station om de naam te zien.

Klik dan om waarnemingen en weersverwachtingen te zien.

kaart wijzigen: klik op de groene knoppen met een zwart kruis om in te zoomen, op de groene knop met een streepje om uit te zoomen of op de groene pijlen voor aangrenzende kaarten.


METAR-TAF: